createdAt,value
2022-10-08T00:00:50.745Z,25.37
2022-10-08T00:03:19.249Z,16.97
2022-10-08T00:05:59.896Z,14.73
2022-10-08T00:08:27.700Z,13.30
2022-10-08T00:10:56.271Z,17.27
2022-10-08T00:13:24.763Z,19.50
2022-10-08T00:15:53.163Z,15.30
2022-10-08T00:18:20.803Z,22.33
2022-10-08T00:20:47.838Z,16.20
2022-10-08T00:23:16.881Z,25.00
2022-10-08T00:25:44.623Z,26.53
2022-10-08T00:28:13.630Z,24.23
2022-10-08T00:30:41.603Z,25.70
2022-10-08T00:33:08.980Z,12.87
2022-10-08T00:35:39.128Z,13.90
2022-10-08T00:38:07.479Z,18.63
2022-10-08T00:40:44.753Z,17.40
2022-10-08T00:43:16.236Z,15.87
2022-10-08T00:45:44.642Z,20.83
2022-10-08T00:48:13.356Z,14.30
2022-10-08T00:50:40.266Z,16.67
2022-10-08T00:53:08.347Z,11.70
2022-10-08T00:55:38.828Z,18.90
2022-10-08T00:58:28.501Z,24.70
2022-10-08T01:00:55.556Z,15.23
2022-10-08T01:03:22.192Z,22.40
2022-10-08T01:05:55.560Z,24.33
2022-10-08T01:08:44.146Z,55.97
2022-10-08T01:11:30.874Z,19.90
2022-10-08T01:14:20.920Z,13.03
2022-10-08T01:17:32.151Z,16.43
2022-10-08T01:20:13.521Z,11.63
2022-10-08T01:22:49.869Z,19.53
2022-10-08T01:25:39.301Z,25.23
2022-10-08T01:28:12.709Z,13.57
2022-10-08T01:30:42.971Z,10.97
2022-10-08T01:33:19.617Z,14.60
2022-10-08T01:35:50.805Z,14.90
2022-10-08T01:38:19.881Z,21.57
2022-10-08T01:40:47.314Z,22.07
2022-10-08T01:43:17.227Z,18.53
2022-10-08T01:45:48.794Z,14.30
2022-10-08T01:48:22.011Z,13.97
2022-10-08T01:50:58.402Z,17.03
2022-10-08T01:53:28.647Z,17.70
2022-10-08T01:55:55.759Z,14.27
2022-10-08T01:58:29.032Z,18.60
2022-10-08T02:00:56.787Z,17.23
2022-10-08T02:03:23.267Z,14.43
2022-10-08T02:05:52.437Z,16.87
2022-10-08T02:08:18.923Z,17.13
2022-10-08T02:10:45.399Z,13.90
2022-10-08T02:13:12.223Z,13.67
2022-10-08T02:15:44.426Z,12.33
2022-10-08T02:18:15.047Z,7.70
2022-10-08T02:20:56.597Z,10.47
2022-10-08T02:23:26.195Z,11.80
2022-10-08T02:26:00.359Z,12.47
2022-10-08T02:28:45.258Z,11.40
2022-10-08T02:31:29.151Z,16.17
2022-10-08T02:34:01.619Z,15.60
2022-10-08T02:36:36.760Z,17.03
2022-10-08T02:39:04.825Z,13.17
2022-10-08T02:41:34.236Z,16.53
2022-10-08T02:44:06.203Z,14.33
2022-10-08T02:46:38.117Z,20.97
2022-10-08T02:49:07.976Z,15.77
2022-10-08T02:51:37.727Z,10.90
2022-10-08T02:54:06.015Z,24.53
2022-10-08T02:57:15.939Z,12.50
2022-10-08T02:59:43.291Z,13.73
2022-10-08T03:02:12.618Z,12.23
2022-10-08T03:04:43.338Z,9.73
2022-10-08T03:07:12.335Z,14.20
2022-10-08T03:09:41.349Z,10.27
2022-10-08T03:12:07.904Z,12.30
2022-10-08T03:14:36.664Z,15.63
2022-10-08T03:17:03.409Z,9.90
2022-10-08T03:19:30.233Z,17.07
2022-10-08T03:21:56.737Z,14.13
2022-10-08T03:24:23.164Z,15.43
2022-10-08T03:26:50.760Z,8.60
2022-10-08T03:29:17.251Z,16.70
2022-10-08T03:31:43.699Z,12.17
2022-10-08T03:34:10.479Z,16.03
2022-10-08T03:36:37.007Z,9.77
2022-10-08T03:39:03.706Z,10.57
2022-10-08T03:41:31.458Z,12.57
2022-10-08T03:43:59.220Z,14.77
2022-10-08T03:46:25.727Z,19.90
2022-10-08T03:48:52.300Z,15.93
2022-10-08T03:51:20.452Z,17.03
2022-10-08T03:53:47.201Z,17.30
2022-10-08T03:56:19.956Z,11.00
2022-10-08T03:58:52.781Z,14.50
2022-10-08T04:01:19.219Z,15.17
2022-10-08T04:03:45.694Z,12.07
2022-10-08T04:06:12.746Z,8.53
2022-10-08T04:08:39.393Z,11.70
2022-10-08T04:11:08.164Z,12.67
2022-10-08T04:13:35.626Z,11.90
2022-10-08T04:16:07.533Z,16.40
2022-10-08T04:18:34.354Z,20.97
2022-10-08T04:21:06.380Z,21.17
2022-10-08T04:23:35.195Z,18.40
2022-10-08T04:26:02.258Z,22.33
2022-10-08T04:28:29.065Z,15.33
2022-10-08T04:31:05.545Z,16.27
2022-10-08T04:33:33.215Z,14.07
2022-10-08T04:36:00.431Z,14.50
2022-10-08T04:38:28.138Z,15.10
2022-10-08T04:41:11.138Z,17.47
2022-10-08T04:43:38.709Z,14.80
2022-10-08T04:46:06.282Z,11.83
2022-10-08T04:48:32.763Z,11.70
2022-10-08T04:51:02.058Z,13.60
2022-10-08T04:53:29.109Z,15.43
2022-10-08T04:55:56.408Z,14.67
2022-10-08T04:58:24.747Z,14.83
2022-10-08T05:00:52.004Z,10.17
2022-10-08T05:03:18.489Z,16.10
2022-10-08T05:05:45.907Z,16.43
2022-10-08T05:08:13.038Z,13.10
2022-10-08T05:10:39.621Z,15.70
2022-10-08T05:13:06.124Z,16.80
2022-10-08T05:15:34.899Z,19.97
2022-10-08T05:18:01.402Z,14.17
2022-10-08T05:20:27.836Z,13.30
2022-10-08T05:22:54.441Z,20.93
2022-10-08T05:25:20.962Z,18.80
2022-10-08T05:27:47.430Z,9.80
2022-10-08T05:30:15.679Z,19.17
2022-10-08T05:32:44.214Z,10.80
2022-10-08T05:35:10.874Z,14.53
2022-10-08T05:37:37.334Z,14.53
2022-10-08T05:40:03.922Z,16.50
2022-10-08T05:42:30.391Z,21.43
2022-10-08T05:44:56.863Z,23.40
2022-10-08T05:47:23.343Z,20.90
2022-10-08T05:49:49.793Z,17.77
2022-10-08T05:52:16.319Z,15.83
2022-10-08T05:54:43.126Z,19.17
2022-10-08T05:57:09.582Z,20.90
2022-10-08T05:59:36.085Z,11.00
2022-10-08T06:02:02.654Z,16.90
2022-10-08T06:04:29.188Z,23.20
2022-10-08T06:06:55.776Z,20.13
2022-10-08T06:09:22.268Z,16.13
2022-10-08T06:11:49.160Z,14.07
2022-10-08T06:14:17.361Z,17.60
2022-10-08T06:16:47.065Z,21.60
2022-10-08T06:19:14.227Z,13.40
2022-10-08T06:21:40.766Z,9.73
2022-10-08T06:24:10.387Z,13.20
2022-10-08T06:26:39.095Z,14.70
2022-10-08T06:29:10.924Z,22.33
2022-10-08T06:31:37.546Z,8.83
2022-10-08T06:34:04.930Z,13.30
2022-10-08T06:36:32.327Z,12.97
2022-10-08T06:39:01.040Z,17.13
2022-10-08T06:41:30.278Z,19.43
2022-10-08T06:43:56.819Z,12.93
2022-10-08T06:46:23.683Z,10.70
2022-10-08T06:48:50.194Z,13.60
2022-10-08T06:51:18.593Z,16.83
2022-10-08T06:53:48.227Z,12.83
2022-10-08T06:56:17.950Z,9.87
2022-10-08T06:58:46.003Z,12.10
2022-10-08T07:01:15.047Z,20.70
2022-10-08T07:03:41.956Z,11.73
2022-10-08T07:06:12.534Z,17.97
2022-10-08T07:08:39.345Z,10.63
2022-10-08T07:11:08.071Z,16.37
2022-10-08T07:13:34.992Z,17.10
2022-10-08T07:16:20.822Z,18.00
2022-10-08T07:18:51.907Z,13.30
2022-10-08T07:21:19.960Z,10.57
2022-10-08T07:23:46.500Z,22.73
2022-10-08T07:26:14.998Z,9.33
2022-10-08T07:28:44.197Z,15.20
2022-10-08T07:31:16.124Z,19.63
2022-10-08T07:33:42.740Z,11.00
2022-10-08T07:36:14.288Z,13.10
2022-10-08T07:38:41.933Z,14.83
2022-10-08T07:41:09.168Z,9.60
2022-10-08T07:43:36.139Z,16.93
2022-10-08T07:46:03.162Z,17.00
2022-10-08T07:48:33.807Z,17.77
2022-10-08T07:51:11.916Z,16.73
2022-10-08T07:53:39.445Z,15.33
2022-10-08T07:56:06.869Z,17.93
2022-10-08T07:58:33.827Z,13.13
2022-10-08T08:01:03.173Z,20.17
2022-10-08T08:03:29.970Z,18.13
2022-10-08T08:06:09.949Z,19.80
2022-10-08T08:08:37.660Z,19.03
2022-10-08T08:11:05.536Z,20.73
2022-10-08T08:13:37.191Z,13.07
2022-10-08T08:16:07.863Z,11.47
2022-10-08T08:18:39.066Z,13.43
2022-10-08T08:21:08.044Z,12.33
2022-10-08T08:23:37.927Z,34.97
2022-10-08T08:26:07.976Z,14.70
2022-10-08T08:28:34.615Z,13.70
2022-10-08T08:31:18.064Z,13.57
2022-10-08T08:33:51.246Z,11.63
2022-10-08T08:36:19.098Z,20.47
2022-10-08T08:38:45.989Z,10.30
2022-10-08T08:41:43.150Z,10.03
2022-10-08T08:44:31.208Z,13.63
2022-10-08T08:47:32.978Z,11.23
2022-10-08T08:50:09.063Z,11.07
2022-10-08T08:52:40.752Z,9.17
2022-10-08T08:55:33.604Z,13.33
2022-10-08T08:58:14.721Z,15.40
2022-10-08T09:00:43.534Z,13.40
2022-10-08T09:03:17.366Z,18.17
2022-10-08T09:05:46.432Z,17.17
2022-10-08T09:08:17.391Z,23.00
2022-10-08T09:10:52.516Z,8.03
2022-10-08T09:13:29.222Z,8.40
2022-10-08T09:15:56.179Z,7.27
2022-10-08T09:18:23.186Z,12.63
2022-10-08T09:20:49.674Z,16.23
2022-10-08T09:23:21.470Z,11.23
2022-10-08T09:26:16.371Z,12.63
2022-10-08T09:28:46.310Z,16.70
2022-10-08T09:31:30.133Z,10.90
2022-10-08T09:34:05.722Z,26.40
2022-10-08T09:36:42.874Z,11.73
2022-10-08T09:39:36.983Z,13.40
2022-10-08T09:42:06.459Z,14.13
2022-10-08T09:44:52.216Z,9.63
2022-10-08T09:47:20.706Z,11.43
2022-10-08T09:50:02.728Z,13.37
2022-10-08T09:52:29.334Z,13.33
2022-10-08T09:55:00.715Z,15.73
2022-10-08T09:57:28.255Z,16.10
2022-10-08T10:00:00.366Z,10.03
2022-10-08T10:02:28.955Z,13.03
2022-10-08T10:04:56.062Z,10.80
2022-10-08T10:07:23.273Z,9.03
2022-10-08T10:09:53.870Z,11.23
2022-10-08T10:12:27.361Z,10.20
2022-10-08T10:15:01.661Z,15.10
2022-10-08T10:17:35.601Z,21.20
2022-10-08T10:20:25.359Z,22.13
2022-10-08T10:22:55.944Z,14.40
2022-10-08T10:25:44.757Z,12.27
2022-10-08T10:28:16.147Z,18.73
2022-10-08T10:30:50.695Z,18.00
2022-10-08T10:33:21.067Z,14.20
2022-10-08T10:35:56.936Z,9.73
2022-10-08T10:38:30.046Z,15.57
2022-10-08T10:41:21.456Z,20.13
2022-10-08T10:43:53.756Z,13.40
2022-10-08T10:46:26.746Z,12.07
2022-10-08T10:48:53.346Z,9.03
2022-10-08T10:51:58.624Z,11.43
2022-10-08T10:54:43.551Z,16.47
2022-10-08T10:57:35.510Z,16.90
2022-10-08T11:00:09.466Z,19.27
2022-10-08T11:02:47.186Z,20.03
2022-10-08T11:05:23.372Z,13.37
2022-10-08T11:08:17.505Z,15.13
2022-10-08T11:10:59.304Z,13.00
2022-10-08T11:14:03.268Z,10.63
2022-10-08T11:16:39.639Z,13.80
2022-10-08T11:19:13.687Z,9.30
2022-10-08T11:22:03.592Z,16.73
2022-10-08T11:24:51.384Z,9.90
2022-10-08T11:27:26.906Z,18.13
2022-10-08T11:30:04.040Z,16.17
2022-10-08T11:32:31.474Z,17.07
2022-10-08T11:35:15.156Z,26.30
2022-10-08T11:37:54.560Z,22.73
2022-10-08T11:40:40.260Z,22.93
2022-10-08T11:43:25.240Z,12.73
2022-10-08T11:46:30.107Z,22.00
2022-10-08T11:49:16.962Z,11.70
2022-10-08T11:51:52.347Z,28.63
2022-10-08T11:54:34.728Z,13.03
2022-10-08T11:57:13.289Z,13.37
2022-10-08T11:59:51.075Z,14.53
2022-10-08T12:02:27.967Z,18.07
2022-10-08T12:04:56.444Z,23.27
2022-10-08T12:07:39.228Z,19.27
2022-10-08T12:10:05.647Z,30.97
2022-10-08T12:12:50.670Z,13.33
2022-10-08T12:15:23.445Z,21.30
2022-10-08T12:17:58.767Z,19.43
2022-10-08T12:20:26.355Z,10.80
2022-10-08T12:23:21.992Z,20.17
2022-10-08T12:26:00.244Z,19.17
2022-10-08T12:28:32.732Z,14.17
2022-10-08T12:31:01.717Z,12.73
2022-10-08T12:33:29.288Z,16.70
2022-10-08T12:36:14.853Z,31.73
2022-10-08T12:38:55.740Z,14.13
2022-10-08T12:41:28.419Z,20.13
2022-10-08T12:44:11.357Z,15.30
2022-10-08T12:46:56.255Z,18.70
2022-10-08T12:49:38.742Z,10.60
2022-10-08T12:52:14.945Z,15.80
2022-10-08T12:54:52.926Z,17.37
2022-10-08T12:57:23.123Z,22.67
2022-10-08T12:59:50.552Z,17.47
2022-10-08T13:02:24.806Z,20.17
2022-10-08T13:04:51.615Z,24.50
2022-10-08T13:07:25.398Z,18.03
2022-10-08T13:09:57.056Z,21.37
2022-10-08T13:12:23.952Z,25.83
2022-10-08T13:15:08.571Z,33.43
2022-10-08T13:17:36.703Z,22.90
2022-10-08T13:20:16.180Z,38.57
2022-10-08T13:22:43.519Z,33.90
2022-10-08T13:25:38.975Z,29.83
2022-10-08T13:28:16.498Z,22.43
2022-10-08T13:30:47.045Z,35.10
2022-10-08T13:33:16.634Z,22.40
2022-10-08T13:35:44.077Z,39.10
2022-10-08T13:38:19.891Z,73.27
2022-10-08T13:40:54.664Z,80.83
2022-10-08T13:43:22.013Z,22.10
2022-10-08T13:45:48.480Z,25.07
2022-10-08T13:48:15.036Z,15.70
2022-10-08T13:50:46.363Z,12.80
2022-10-08T13:53:14.267Z,20.43
2022-10-08T13:55:43.916Z,12.97
2022-10-08T13:58:13.683Z,20.63
2022-10-08T14:00:42.339Z,23.83
2022-10-08T14:03:09.197Z,19.53
2022-10-08T14:05:40.579Z,18.23
2022-10-08T14:08:27.635Z,16.23
2022-10-08T14:10:57.965Z,18.33
2022-10-08T14:13:24.783Z,14.07
2022-10-08T14:15:51.482Z,14.70
2022-10-08T14:18:17.943Z,19.63
2022-10-08T14:20:44.719Z,25.73
2022-10-08T14:23:13.231Z,32.23
2022-10-08T14:25:39.701Z,24.50
2022-10-08T14:28:06.318Z,13.60
2022-10-08T14:30:32.911Z,21.20
2022-10-08T14:32:59.448Z,16.30
2022-10-08T14:35:25.922Z,16.90
2022-10-08T14:37:52.402Z,24.63
2022-10-08T14:40:21.306Z,24.57
2022-10-08T14:42:48.148Z,13.73
2022-10-08T14:45:14.876Z,24.87
2022-10-08T14:47:41.908Z,14.57
2022-10-08T14:50:08.819Z,14.73
2022-10-08T14:52:43.267Z,28.87
2022-10-08T14:55:11.155Z,12.30
2022-10-08T14:57:37.701Z,15.80
2022-10-08T15:00:05.006Z,17.00
2022-10-08T15:02:31.716Z,16.83
2022-10-08T15:04:58.246Z,23.17
2022-10-08T15:07:24.787Z,15.53
2022-10-08T15:09:51.531Z,15.40
2022-10-08T15:12:18.020Z,16.03
2022-10-08T15:14:44.519Z,20.03
2022-10-08T15:17:11.005Z,18.03
2022-10-08T15:19:37.599Z,14.30
2022-10-08T15:22:04.258Z,18.97
2022-10-08T15:24:30.733Z,21.73
2022-10-08T15:26:57.511Z,18.40
2022-10-08T15:29:23.950Z,35.17
2022-10-08T15:31:51.414Z,43.47
2022-10-08T15:34:19.716Z,24.00
2022-10-08T15:36:46.668Z,23.53
2022-10-08T15:39:15.813Z,18.83
2022-10-08T15:41:52.220Z,65.43
2022-10-08T15:44:19.601Z,29.93
2022-10-08T15:46:47.141Z,24.33
2022-10-08T15:49:14.365Z,25.37
2022-10-08T15:51:41.206Z,64.20
2022-10-08T15:54:07.793Z,34.60
2022-10-08T15:56:34.962Z,34.40
2022-10-08T15:59:01.991Z,23.53
2022-10-08T16:01:29.630Z,58.20
2022-10-08T16:03:56.863Z,75.97
2022-10-08T16:06:29.904Z,51.40
2022-10-08T16:08:57.912Z,93.17
2022-10-08T16:11:27.656Z,23.50
2022-10-08T16:13:56.665Z,19.90
2022-10-08T16:16:23.422Z,25.13
2022-10-08T16:18:55.342Z,35.97
2022-10-08T16:21:21.927Z,26.30
2022-10-08T16:23:48.697Z,47.83
2022-10-08T16:26:20.456Z,34.93
2022-10-08T16:28:58.059Z,37.53
2022-10-08T16:31:26.368Z,29.77
2022-10-08T16:33:57.553Z,30.97
2022-10-08T16:36:24.581Z,37.63
2022-10-08T16:38:51.392Z,47.65
2022-10-08T16:41:17.901Z,50.33
2022-10-08T16:43:49.359Z,58.38
2022-10-08T16:46:20.023Z,44.88
2022-10-08T16:48:55.308Z,28.50
2022-10-08T16:51:23.594Z,41.03
2022-10-08T16:53:55.103Z,27.30
2022-10-08T16:56:23.196Z,26.57
2022-10-08T16:58:53.877Z,39.37
2022-10-08T17:01:20.933Z,27.53
2022-10-08T17:03:48.710Z,22.70
2022-10-08T17:06:16.821Z,20.47
2022-10-08T17:08:43.269Z,20.57
2022-10-08T17:11:10.860Z,32.00
2022-10-08T17:13:44.952Z,30.87
2022-10-08T17:16:12.508Z,26.37
2022-10-08T17:18:39.767Z,22.97
2022-10-08T17:21:07.600Z,36.80
2022-10-08T17:23:37.964Z,36.27
2022-10-08T17:26:16.161Z,25.35
2022-10-08T17:28:44.240Z,26.87
2022-10-08T17:31:14.419Z,22.10
2022-10-08T17:33:41.697Z,21.80
2022-10-08T17:36:19.728Z,25.60
2022-10-08T17:38:47.864Z,23.90
2022-10-08T17:41:15.400Z,24.00
2022-10-08T17:43:42.680Z,30.37
2022-10-08T17:46:11.738Z,30.63
2022-10-08T17:48:38.229Z,23.03
2022-10-08T17:51:05.540Z,31.23
2022-10-08T17:53:32.279Z,34.17
2022-10-08T17:56:07.764Z,26.87
2022-10-08T17:58:34.843Z,28.47
2022-10-08T18:01:18.984Z,25.70
2022-10-08T18:03:50.916Z,32.33
2022-10-08T18:06:18.428Z,28.77
2022-10-08T18:08:45.468Z,32.43
2022-10-08T18:11:14.289Z,24.13
2022-10-08T18:13:42.530Z,27.83
2022-10-08T18:16:12.023Z,32.23
2022-10-08T18:18:38.863Z,29.10
2022-10-08T18:21:05.895Z,23.48
2022-10-08T18:23:34.172Z,28.07
2022-10-08T18:26:12.620Z,36.40
2022-10-08T18:28:39.260Z,28.90
2022-10-08T18:31:07.857Z,41.03
2022-10-08T18:33:35.570Z,41.10
2022-10-08T18:36:21.976Z,50.93
2022-10-08T18:38:53.147Z,32.42
2022-10-08T18:41:25.239Z,39.58
2022-10-08T18:43:52.040Z,43.00
2022-10-08T18:46:19.861Z,36.70
2022-10-08T18:48:46.661Z,34.80
2022-10-08T18:51:18.570Z,29.57
2022-10-08T18:53:45.875Z,34.63
2022-10-08T18:56:18.431Z,29.75
2022-10-08T18:58:46.468Z,29.10
2022-10-08T19:01:21.870Z,35.00
2022-10-08T19:03:50.751Z,32.13
2022-10-08T19:06:18.879Z,24.97
2022-10-08T19:08:46.816Z,27.80
2022-10-08T19:11:18.739Z,29.47
2022-10-08T19:13:45.303Z,21.90
2022-10-08T19:16:14.107Z,28.93
2022-10-08T19:19:05.277Z,25.00
2022-10-08T19:21:33.253Z,28.07
2022-10-08T19:24:00.940Z,32.90
2022-10-08T19:26:30.339Z,31.77
2022-10-08T19:28:57.307Z,33.73
2022-10-08T19:31:32.001Z,36.20
2022-10-08T19:34:00.845Z,23.10
2022-10-08T19:36:30.002Z,25.87
2022-10-08T19:38:58.659Z,29.37
2022-10-08T19:41:25.777Z,29.63
2022-10-08T19:43:53.427Z,28.43
2022-10-08T19:46:20.493Z,26.93
2022-10-08T19:48:51.525Z,22.87
2022-10-08T19:51:19.151Z,27.47
2022-10-08T19:53:46.078Z,22.87
2022-10-08T19:56:12.930Z,20.07
2022-10-08T19:58:45.011Z,24.90
2022-10-08T20:01:18.601Z,40.00
2022-10-08T20:03:45.204Z,24.83
2022-10-08T20:06:14.311Z,23.73
2022-10-08T20:08:41.339Z,25.80
2022-10-08T20:11:10.358Z,29.47
2022-10-08T20:13:37.201Z,25.33
2022-10-08T20:16:14.867Z,27.80
2022-10-08T20:18:41.541Z,30.13
2022-10-08T20:21:10.965Z,24.27
2022-10-08T20:23:38.935Z,24.53
2022-10-08T20:26:15.267Z,21.10
2022-10-08T20:28:43.035Z,26.77
2022-10-08T20:31:12.733Z,38.03
2022-10-08T20:33:41.195Z,25.53
2022-10-08T20:36:13.211Z,35.23
2022-10-08T20:38:40.359Z,32.70
2022-10-08T20:41:08.183Z,22.23
2022-10-08T20:43:36.116Z,25.37
2022-10-08T20:46:08.068Z,27.93
2022-10-08T20:48:39.172Z,26.30
2022-10-08T20:51:10.731Z,19.50
2022-10-08T20:53:37.603Z,20.77
2022-10-08T20:56:08.892Z,31.13
2022-10-08T20:58:35.834Z,20.63
2022-10-08T21:01:14.274Z,21.50
2022-10-08T21:03:44.286Z,24.73
2022-10-08T21:06:13.368Z,26.43
2022-10-08T21:08:41.506Z,27.57
2022-10-08T21:11:09.699Z,38.40
2022-10-08T21:13:36.435Z,21.50
2022-10-08T21:16:05.803Z,22.60
2022-10-08T21:18:32.895Z,28.43
2022-10-08T21:21:07.607Z,22.40
2022-10-08T21:23:34.749Z,28.83
2022-10-08T21:26:11.788Z,26.40
2022-10-08T21:28:38.770Z,38.00
2022-10-08T21:31:06.437Z,36.07
2022-10-08T21:33:37.099Z,24.43
2022-10-08T21:36:04.999Z,21.27
2022-10-08T21:38:31.785Z,33.43
2022-10-08T21:41:01.228Z,36.90
2022-10-08T21:43:31.275Z,30.53
2022-10-08T21:46:00.711Z,39.90
2022-10-08T21:48:29.001Z,35.43
2022-10-08T21:51:16.885Z,36.43
2022-10-08T21:53:50.155Z,35.13
2022-10-08T21:56:18.703Z,18.33
2022-10-08T21:58:47.243Z,42.33
2022-10-08T22:01:30.396Z,42.87
2022-10-08T22:03:59.302Z,29.43
2022-10-08T22:06:27.371Z,31.97
2022-10-08T22:08:54.311Z,23.23
2022-10-08T22:11:20.932Z,46.30
2022-10-08T22:13:47.886Z,31.97
2022-10-08T22:16:16.434Z,38.53
2022-10-08T22:18:43.175Z,36.10
2022-10-08T22:21:13.600Z,91.80
2022-10-08T22:23:40.368Z,36.50
2022-10-08T22:26:16.130Z,31.27
2022-10-08T22:28:43.048Z,41.73
2022-10-08T22:31:10.859Z,42.53
2022-10-08T22:33:37.346Z,28.33
2022-10-08T22:36:28.469Z,36.13
2022-10-08T22:38:56.071Z,20.70
2022-10-08T22:41:24.704Z,28.70
2022-10-08T22:43:52.344Z,43.63
2022-10-08T22:46:25.051Z,36.67
2022-10-08T22:48:52.067Z,32.07
2022-10-08T22:51:21.508Z,21.43
2022-10-08T22:53:48.272Z,32.83
2022-10-08T22:56:20.542Z,38.93
2022-10-08T22:58:47.897Z,33.90
2022-10-08T23:01:17.405Z,36.00
2022-10-08T23:03:43.996Z,25.53
2022-10-08T23:06:28.301Z,32.53
2022-10-08T23:08:59.864Z,37.10
2022-10-08T23:11:26.847Z,37.10
2022-10-08T23:13:55.522Z,33.10
2022-10-08T23:16:23.145Z,20.87
2022-10-08T23:18:58.012Z,24.33
2022-10-08T23:21:25.104Z,27.03
2022-10-08T23:23:52.179Z,24.07
2022-10-08T23:26:18.844Z,24.23
2022-10-08T23:28:50.033Z,25.00
2022-10-08T23:31:18.680Z,20.50
2022-10-08T23:33:47.436Z,30.33
2022-10-08T23:36:27.904Z,24.30
2022-10-08T23:38:56.435Z,28.33
2022-10-08T23:41:23.352Z,23.87
2022-10-08T23:43:51.249Z,20.30
2022-10-08T23:46:19.746Z,30.23
2022-10-08T23:48:46.613Z,30.87
2022-10-08T23:51:14.075Z,25.73
2022-10-08T23:53:42.740Z,29.27
2022-10-08T23:56:09.929Z,20.77
2022-10-08T23:58:36.788Z,20.13
